Aérodrome :
LOGIN :

S'inscrire | Disclaimer

   EN    FR    IT 

 










Légende :    VFR   VFR Marginal   IFR   IFR Intensif   IFR Très Intensif
Visi : 
Plafond : 
>= 8 km
>= 3000ft
5 à 8 km
1000 à 3000 ft
1500m à 5 km
500 à 1000 ft
800 à 1500m
200 à 500 ft
< 800m
< 200 ft
Symboles :   Orages  Brouillard  Fortes neiges  Fortes précipitations  Vent > 20 kt
SIGMETs :   Divers  Orages  Givrage  Turbulence  Onde Orograph.  Cendres Volcan.






- Altitude de l'aérodrome : 12 ft
- Code IATA : BCN


LEBL - Barcelone

DERNIER METAR :
  • 081130Z 06007KT 9999 -DZ FEW018 BKN030 13/09 Q1015 NOSIG

METARs EXPIRÉS :
  • 081100Z 05009KT 9999 -DZ FEW018 BKN032 13/09 Q1015 NOSIG
  • 081030Z 03009KT 9999 -DZ FEW020 BKN032 13/09 Q1015 NOSIG
  • 081000Z 04011KT 9999 FEW020 BKN040 13/09 Q1015 NOSIG
  • 080930Z 06010KT 9999 -DZ FEW015 BKN040 12/09 Q1015 NOSIG
  • 080900Z 07011KT 9999 -DZ FEW015 BKN045 12/09 Q1015 NOSIG

TAF TAF LEBL
Valide du 08 à 12h jusqu'au 09 à 12h UTC


081100Z 0812/0912 06008KT 9999 SCT020 SCT040 TX14/0812Z TN10/0906Z
PROB40
TEMPO 0812/0820 4000 RA BKN012 FEW025TCU
BECMG 0815/0817 26005KT
BECMG 0821/0823 34010KT
BECMG 0910/0912 22010KT



MET'MAP, la Météo Aéronautique d'un coup d'oeil ! - Copyright ORBIFLY Décembre 2007 - Disclaimer

ORBIFLY MET'MAP TEAM :

Programmation & Développement : Alexandra Zaïnal
Sur une idée originale de : Baudouin d'Aumeries
Assistance à la programmation : Marc-Olivier Méhu
Soutien technique & logistique : Manuel Goepfert

Contact : metmap@orbifly.com




SOURCES & CREDITS :

   NOAA